KFCM/FCM METAR and TAF weather

Enter ICAO airport designator
Station Type Date Time Source
KFCM METAR 2019/04/18 21:53 UTC NOAA

KFCM 182153Z 36014G19KT 10SM OVC050 12/03 A2986 RMK AO2 SLP116 T01170028


Station Type Date Time Source
KFCM Decoded METAR 2019/04/18 21:53 UTC NOAA

Minneapolis, Flying Cloud Airport, MN, United States (KFCM) 44-49-56N 093-28-13W 280M
Apr 18, 2019 - 05:53 PM EDT / 2019.04.18 2153 UTC
Wind: from the N (360 degrees) at 16 MPH (14 KT) gusting to 22 MPH (19 KT):0
Visibility: 10 mile(s):0
Sky conditions: overcast
Temperature: 53.1 F (11.7 C)
Dew Point: 37.0 F (2.8 C)
Relative Humidity: 54%
Pressure (altimeter): 29.86 in. Hg (1011 hPa)
ob: KFCM 182153Z 36014G19KT 10SM OVC050 12/03 A2986 RMK AO2 SLP116 T01170028
cycle: 22

Station Type Date Time Source
KFCM TAF 2018/02/05 20:59 UTC NOAA

TAF
AMD KFCM 051959Z 0520/0618 27007KT 6SM -SHSN BKN020 OVC050
TEMPO 0520/0522 SCT020 BKN050
FM052200 27007KT P6SM FEW020 BKN100
FM060100 31007KT P6SM FEW200
FM061000 VRB03KT P6SM FEW250
AMD NOT SKED

Example: see airport list